Time;durP1;ratioP1;P1;durP2;ratioP2;P2;SDS_P1;SDS_P2;PMS_P1;PMS_P2;Temp;Humidity;BMP_temperature;BMP_pressure;BME280_temperature;BME280_humidity;BME280_pressure;Samples;Min_cycle;Max_cycle;Signal;HPM_P1;HPM_P2
2021/01/04 00:03:19;;;;;;;10.50;7.14;;;;;;;1.11;88.72;98936.19;2351315;68;20364;-83
2021/01/04 00:09:37;;;;;;;9.11;7.23;;;;;;;1.10;88.78;98926.78;2343649;68;20372;-84
2021/01/04 00:30:24;;;;;;;8.84;6.61;;;;;;;1.16;89.17;98919.28;2357151;68;20252;-87
2021/01/04 00:37:05;;;;;;;;;;;;;;;1.04;88.67;98921.50;2354754;68;20257;-85
2021/01/04 01:09:34;;;;;;;9.39;6.97;;;;;;;1.09;89.47;98919.09;2354171;68;20252;-85
2021/01/04 01:22:51;;;;;;;9.88;6.97;;;;;;;1.04;89.52;98920.63;2356765;68;20161;-86
2021/01/04 01:32:55;;;;;;;9.36;7.28;;;;;;;1.07;89.39;98925.81;2351902;68;20305;-84
2021/01/04 02:05:36;;;;;;;;;;;;;;;;;;;;;
2021/01/04 02:27:01;;;;;;;9.76;7.01;;;;;;;1.05;89.85;98935.16;2352786;68;20293;-86
2021/01/04 02:30:04;;;;;;;;;;;;;;;1.02;89.62;98938.50;2358565;68;20146;-85
2021/01/04 02:33:07;;;;;;;8.74;6.61;;;;;;;1.00;89.70;98940.16;2360074;68;20067;-85
2021/01/04 02:36:12;;;;;;;9.79;7.46;;;;;;;1.01;89.76;98934.22;2350303;68;20137;-84
2021/01/04 02:46:22;;;;;;;9.81;6.63;;;;;;;0.99;89.74;98929.88;2348333;68;20314;-83
2021/01/04 02:49:43;;;;;;;10.19;6.88;;;;;;;1.04;89.88;98930.88;2345897;68;20167;-88
2021/01/04 03:03:20;;;;;;;8.25;6.06;;;;;;;1.05;89.57;98930.03;2329116;68;20183;-84
2021/01/04 03:09:53;;;;;;;9.10;6.69;;;;;;;1.04;89.74;98921.50;2348090;68;20404;-84
2021/01/04 03:20:00;;;;;;;8.20;6.10;;;;;;;1.08;89.67;98919.91;2349579;68;20204;-82
2021/01/04 03:23:03;;;;;;;8.96;6.70;;;;;;;1.11;89.70;98923.41;2349033;68;20282;-83
2021/01/04 03:26:14;;;;;;;7.13;6.06;;;;;;;1.13;89.58;98924.31;2339958;68;20323;-75
2021/01/04 03:29:16;;;;;;;9.74;6.70;;;;;;;1.14;89.55;98920.06;2330858;68;20794;-75
2021/01/04 03:32:18;;;;;;;8.98;7.31;;;;;;;1.13;89.46;98913.22;2328931;68;20323;-75
2021/01/04 03:35:20;;;;;;;10.36;7.27;;;;;;;1.14;89.59;98920.94;2330339;68;20416;-75
2021/01/04 03:38:22;;;;;;;9.60;7.19;;;;;;;1.11;89.60;98915.75;2329908;68;20142;-75
2021/01/04 03:41:24;;;;;;;10.21;7.81;;;;;;;1.13;89.59;98913.22;2329761;68;20274;-75
2021/01/04 03:44:27;;;;;;;9.91;7.67;;;;;;;1.11;89.52;98915.75;2329733;68;20313;-75
2021/01/04 03:47:29;;;;;;;10.13;7.76;;;;;;;1.11;89.53;98920.00;2330031;68;20196;-75
2021/01/04 03:50:31;;;;;;;9.39;7.19;;;;;;;1.05;89.54;98918.13;2330199;68;20319;-75
2021/01/04 03:53:32;;;;;;;9.93;7.76;;;;;;;1.08;89.76;98913.13;2329140;68;20281;-75
2021/01/04 03:56:34;;;;;;;10.88;8.29;;;;;;;1.12;89.88;98916.59;2330542;68;20307;-75
2021/01/04 03:59:36;;;;;;;13.23;7.76;;;;;;;1.15;89.87;98902.19;2331040;68;20342;-75
2021/01/04 04:02:38;;;;;;;11.15;8.24;;;;;;;1.15;89.75;98907.31;2330851;68;20305;-75
2021/01/04 04:05:40;;;;;;;13.24;8.59;;;;;;;1.16;89.66;98910.72;2328879;68;20309;-75
2021/01/04 04:08:42;;;;;;;9.32;7.22;;;;;;;1.14;89.64;98907.28;2328917;68;20166;-75
2021/01/04 04:11:44;;;;;;;9.77;7.59;;;;;;;1.14;89.80;98909.84;2328503;68;20506;-75
2021/01/04 04:14:48;;;;;;;8.97;7.29;;;;;;;1.15;89.72;98909.88;2328827;68;21084;-75
2021/01/04 04:17:50;;;;;;;11.00;7.88;;;;;;;1.16;89.76;98918.41;2331364;68;20199;-75
2021/01/04 04:20:52;;;;;;;10.80;7.86;;;;;;;1.16;89.64;98914.16;2334820;68;20314;-75
2021/01/04 04:23:53;;;;;;;11.76;8.16;;;;;;;1.17;89.67;98920.13;2335639;68;21048;-74
2021/01/04 04:26:55;;;;;;;11.81;7.72;;;;;;;1.17;89.52;98920.13;2334995;68;20292;-75
2021/01/04 04:29:56;;;;;;;10.11;7.47;;;;;;;1.15;89.52;98921.78;2338377;68;20335;-75
2021/01/04 04:32:59;;;;;;;11.79;7.56;;;;;;;1.17;89.57;98927.81;2334969;68;20304;-75
2021/01/04 04:36:02;;;;;;;10.75;7.40;;;;;;;1.16;89.43;98926.94;2335035;68;20342;-75
2021/01/04 04:39:04;;;;;;;8.81;7.20;;;;;;;1.17;89.43;98932.91;2334229;68;20281;-75
2021/01/04 04:42:10;;;;;;;9.41;6.86;;;;;;;1.14;89.44;98922.63;2335506;68;20300;-75
2021/01/04 04:45:18;;;;;;;9.25;7.07;;;;;;;1.15;89.50;98926.91;2334463;68;20345;-75
2021/01/04 04:48:33;;;;;;;8.65;6.89;;;;;;;1.16;89.38;98920.97;2334697;68;20324;-75
2021/01/04 04:52:08;;;;;;;10.27;6.94;;;;;;;1.14;89.30;98923.47;2334130;68;20665;-75
2021/01/04 04:55:31;;;;;;;10.69;6.90;;;;;;;1.13;89.29;98931.13;2334070;68;20559;-75
2021/01/04 04:58:42;;;;;;;10.57;7.16;;;;;;;1.10;89.22;98926.78;2334355;68;20898;-75
2021/01/04 05:01:52;;;;;;;8.93;6.54;;;;;;;1.12;89.36;98926.81;2334391;68;20296;-74
2021/01/04 05:05:13;;;;;;;9.60;6.64;;;;;;;1.08;89.17;98927.59;2334318;68;20595;-74
2021/01/04 05:08:39;;;;;;;8.07;6.56;;;;;;;1.07;89.39;98926.69;2335423;68;20848;-75
2021/01/04 05:11:45;;;;;;;10.48;6.69;;;;;;;1.02;89.38;98920.59;2334743;68;20905;-75
2021/01/04 05:15:29;;;;;;;7.95;6.40;;;;;;;1.05;89.70;98924.91;2334996;68;20274;-75
2021/01/04 05:18:49;;;;;;;7.96;6.23;;;;;;;1.04;89.54;98920.63;2327823;68;20319;-75
2021/01/04 05:22:08;;;;;;;8.02;6.27;;;;;;;1.03;89.59;98924.88;2334759;68;20174;-74
2021/01/04 05:25:36;;;;;;;;;;;;;;;1.03;89.62;98919.78;2335065;68;20153;-75
2021/01/04 05:29:10;;;;;;;5.89;4.27;;;;;;;1.02;89.64;98925.72;2322927;68;20624;-75
2021/01/04 05:32:31;;;;;;;6.47;5.16;;;;;;;1.07;89.77;98919.03;2334745;68;20202;-75
2021/01/04 05:35:35;;;;;;;5.86;4.91;;;;;;;1.12;89.67;98926.81;2335819;68;21273;-75
2021/01/04 05:39:03;;;;;;;6.88;5.14;;;;;;;1.14;89.55;98925.19;2334103;68;20190;-75
2021/01/04 05:42:31;;;;;;;5.96;4.56;;;;;;;1.13;89.31;98928.56;2334553;68;20273;-75
2021/01/04 05:45:55;;;;;;;6.86;5.20;;;;;;;1.12;89.32;98924.28;2335026;68;20426;-75
2021/01/04 05:49:15;;;;;;;5.60;4.98;;;;;;;1.14;89.23;98932.84;2335010;68;20185;-75
2021/01/04 05:52:17;;;;;;;5.39;4.78;;;;;;;1.16;89.19;98933.75;2334686;68;20191;-75
2021/01/04 05:55:20;;;;;;;5.88;5.32;;;;;;;1.18;89.08;98929.53;2334946;68;20318;-74
2021/01/04 05:58:28;;;;;;;5.88;5.28;;;;;;;1.20;88.95;98938.09;2335248;68;20741;-75
2021/01/04 06:01:30;;;;;;;6.34;5.64;;;;;;;1.22;88.87;98944.13;2335281;68;20280;-74
2021/01/04 06:04:32;;;;;;;5.97;5.09;;;;;;;1.22;88.79;98939.00;2334037;68;20778;-75
2021/01/04 06:07:39;;;;;;;7.05;5.04;;;;;;;1.26;88.73;98942.50;2335166;68;21072;-74
2021/01/04 06:10:41;;;;;;;6.14;5.54;;;;;;;1.29;88.59;98943.47;2334972;68;20333;-74
2021/01/04 06:13:45;;;;;;;6.42;5.37;;;;;;;1.29;88.42;98946.03;2335735;68;20904;-74
2021/01/04 06:16:47;;;;;;;5.76;5.16;;;;;;;1.33;88.39;98952.94;2334301;68;20701;-75
2021/01/04 06:19:52;;;;;;;5.53;5.03;;;;;;;1.36;88.33;98952.13;2335322;68;20301;-75
2021/01/04 06:22:53;;;;;;;5.94;5.30;;;;;;;1.39;88.25;98952.22;2335351;68;20182;-75
2021/01/04 06:26:00;;;;;;;5.26;4.76;;;;;;;1.38;88.11;98953.03;2335627;68;20808;-74
2021/01/04 06:29:06;;;;;;;5.86;4.81;;;;;;;1.37;87.92;98964.09;2335159;68;20296;-75
2021/01/04 06:32:21;;;;;;;5.26;4.78;;;;;;;1.34;87.94;98959.78;2336564;68;20515;-75
2021/01/04 06:35:33;;;;;;;5.68;5.16;;;;;;;1.37;88.00;98957.28;2335288;68;20296;-75
2021/01/04 06:38:38;;;;;;;5.84;5.07;;;;;;;1.41;87.87;98955.66;2335592;68;20330;-74
2021/01/04 06:41:40;;;;;;;6.09;5.49;;;;;;;1.42;87.75;98960.81;2333890;68;20157;-75
2021/01/04 06:44:57;;;;;;;8.13;5.80;;;;;;;1.44;87.73;98963.44;2335263;68;20909;-75
2021/01/04 06:48:08;;;;;;;6.92;5.59;;;;;;;1.46;87.61;98956.66;2334437;68;20304;-75
2021/01/04 06:51:43;;;;;;;7.06;5.63;;;;;;;1.48;87.62;98953.31;2335550;68;20167;-75
2021/01/04 06:54:59;;;;;;;5.86;5.31;;;;;;;1.53;87.56;98955.97;2315006;68;20486;-75
2021/01/04 06:58:22;;;;;;;6.35;5.71;;;;;;;1.52;87.30;98954.25;2334506;68;20482;-75
2021/01/04 07:01:49;;;;;;;6.61;5.42;;;;;;;1.52;87.26;98954.25;2334853;68;21059;-74
2021/01/04 07:05:27;;;;;;;6.55;5.40;;;;;;;1.56;87.36;98963.72;2325663;68;20627;-77
2021/01/04 07:08:58;;;;;;;5.95;5.35;;;;;;;1.58;87.16;98959.50;2334581;68;20772;-77
2021/01/04 07:12:17;;;;;;;7.96;5.70;;;;;;;1.59;87.17;98973.16;2334962;68;20292;-75
2021/01/04 07:15:26;;;;;;;6.71;5.69;;;;;;;1.59;87.05;98974.03;2334643;68;20288;-76
2021/01/04 07:18:43;;;;;;;6.16;5.56;;;;;;;1.57;87.03;98969.69;2334830;68;20207;-75
2021/01/04 07:22:15;;;;;;;6.30;5.14;;;;;;;1.57;87.15;98977.38;2335112;68;20561;-77
2021/01/04 07:25:56;;;;;;;6.59;5.82;;;;;;;1.59;87.04;98973.16;2334848;68;20350;-74
2021/01/04 07:29:20;;;;;;;6.68;5.38;;;;;;;1.60;87.06;98972.34;2334856;68;20652;-76
2021/01/04 07:32:30;;;;;;;5.64;5.09;;;;;;;1.55;86.77;98977.34;2335287;68;20703;-79
2021/01/04 07:35:37;;;;;;;6.21;5.61;;;;;;;1.51;86.86;98973.00;2335621;68;20305;-77
2021/01/04 07:38:50;;;;;;;6.47;5.88;;;;;;;1.52;87.17;98977.28;2335923;68;20892;-77
2021/01/04 07:42:16;;;;;;;5.93;5.21;;;;;;;1.53;87.01;98979.00;2335159;68;20288;-77
2021/01/04 07:45:37;;;;;;;6.44;5.81;;;;;;;1.50;86.98;98973.81;2334715;68;20890;-75
2021/01/04 08:02:34;;;;;;;13.41;9.85;;;;;;;1.65;87.07;98992.09;2343036;68;20375;-79
2021/01/04 08:12:39;;;;;;;10.11;7.46;;;;;;;1.65;86.81;98994.66;2328078;68;20286;-79
2021/01/04 08:15:45;;;;;;;8.43;6.40;;;;;;;1.65;86.69;98996.34;2329121;68;20681;-80
2021/01/04 08:18:54;;;;;;;7.34;5.92;;;;;;;1.65;86.53;98992.09;2339820;68;20319;-81
2021/01/04 08:22:20;;;;;;;6.76;6.06;;;;;;;1.62;86.32;98991.16;2340263;68;20172;-80
2021/01/04 08:25:35;;;;;;;7.03;5.74;;;;;;;1.58;86.51;98994.47;2336075;68;20176;-78
2021/01/04 08:28:44;;;;;;;6.39;5.55;;;;;;;1.58;86.62;99002.13;2327934;68;20293;-78
2021/01/04 08:54:28;;;;;;;11.70;7.79;;;;;;;1.73;86.43;99008.50;2363365;68;20169;-86
2021/01/04 09:43:48;;;;;;;10.11;7.08;;;;;;;1.89;85.70;99017.41;2316642;68;20386;-81
2021/01/04 09:46:56;;;;;;;9.27;6.59;;;;;;;1.89;85.63;99019.97;2331604;67;20318;-85
2021/01/04 09:50:06;;;;;;;10.45;6.54;;;;;;;1.90;85.69;99024.25;2358077;68;20300;-83
2021/01/04 09:56:30;;;;;;;9.84;6.93;;;;;;;1.93;85.64;99026.03;2336075;68;20353;-84
2021/01/04 10:10:30;;;;;;;11.98;7.47;;;;;;;2.05;85.61;99018.66;2341754;68;20314;-84
2021/01/04 10:23:48;;;;;;;11.40;7.84;;;;;;;2.11;85.14;99009.41;2347216;68;20285;-82
2021/01/04 10:27:27;;;;;;;11.90;7.80;;;;;;;2.09;84.95;99005.94;2359871;68;20308;-84
2021/01/04 10:30:46;;;;;;;12.01;7.50;;;;;;;2.12;85.03;98997.47;2364486;68;20261;-83
2021/01/04 10:47:10;;;;;;;11.99;7.80;;;;;;;2.36;85.09;98992.03;2321722;68;20747;-74
2021/01/04 10:50:14;;;;;;;12.71;7.82;;;;;;;2.40;84.96;98997.25;2335337;68;20781;-73
2021/01/04 10:53:35;;;;;;;12.45;8.06;;;;;;;2.41;84.60;98987.88;2334658;68;20822;-74
2021/01/04 10:56:40;;;;;;;12.84;7.90;;;;;;;2.43;84.47;98988.75;2335221;68;20756;-74
2021/01/04 11:00:30;;;;;;;12.98;7.97;;;;;;;2.45;84.29;98991.34;2334871;68;20289;-73
2021/01/04 11:03:32;;;;;;;9.31;6.69;;;;;;;2.48;84.29;98974.34;2331449;68;20342;-75
2021/01/04 11:06:37;;;;;;;11.15;7.84;;;;;;;2.50;84.15;98980.34;2334925;68;20301;-75
2021/01/04 11:09:42;;;;;;;11.02;7.53;;;;;;;2.50;84.09;98974.38;2334920;68;20336;-75
2021/01/04 11:12:47;;;;;;;12.84;8.25;;;;;;;2.49;84.01;98964.94;2333472;68;20326;-75
2021/01/04 11:15:49;;;;;;;12.96;8.13;;;;;;;2.51;84.02;98965.84;2333214;68;20328;-74
2021/01/04 11:18:55;;;;;;;10.50;7.99;;;;;;;2.52;84.02;98955.66;2331323;68;20905;-75
2021/01/04 11:22:09;;;;;;;12.09;8.01;;;;;;;2.56;84.05;98960.00;2332471;68;20756;-75
2021/01/04 11:25:12;;;;;;;12.99;7.85;;;;;;;2.58;83.94;98952.34;2332453;68;20327;-74
2021/01/04 11:28:14;;;;;;;9.80;7.26;;;;;;;2.59;83.90;98947.25;2332235;68;21194;-74
2021/01/04 11:31:33;;;;;;;10.24;7.03;;;;;;;2.63;83.98;98950.72;2332854;68;20273;-74
2021/01/04 11:34:34;;;;;;;11.25;6.88;;;;;;;2.61;83.75;98952.41;2337265;68;20300;-74
2021/01/04 11:37:36;;;;;;;12.95;7.63;;;;;;;2.61;83.69;98943.00;2331803;68;20318;-74
2021/01/04 11:40:38;;;;;;;11.23;7.82;;;;;;;2.62;83.63;98939.63;2332377;68;20451;-74
2021/01/04 11:43:42;;;;;;;11.14;6.84;;;;;;;2.64;83.54;98942.19;2331933;68;21519;-74
2021/01/04 11:46:44;;;;;;;10.61;7.26;;;;;;;2.65;83.45;98941.38;2332140;68;20306;-74
2021/01/04 11:49:46;;;;;;;10.65;6.96;;;;;;;2.65;83.43;98939.66;2333220;68;20310;-74
2021/01/04 11:52:47;;;;;;;10.64;6.38;;;;;;;2.67;83.39;98934.56;2334285;68;20296;-74
2021/01/04 11:55:49;;;;;;;10.20;6.76;;;;;;;2.67;83.37;98929.44;2335203;68;20280;-75
2021/01/04 11:58:51;;;;;;;9.79;6.76;;;;;;;2.69;83.38;98932.91;2334123;68;20330;-75
2021/01/04 12:01:54;;;;;;;9.69;6.54;;;;;;;2.70;83.20;98925.28;2335045;68;20807;-74
2021/01/04 12:04:56;;;;;;;10.60;7.04;;;;;;;2.70;83.01;98924.41;2334925;68;20630;-75
2021/01/04 12:07:58;;;;;;;9.98;6.82;;;;;;;2.70;83.13;98924.41;2334416;68;20310;-75
2021/01/04 12:10:59;;;;;;;12.06;6.54;;;;;;;2.69;83.07;98917.53;2334871;68;20342;-74
2021/01/04 12:14:01;;;;;;;10.18;7.00;;;;;;;2.69;82.99;98922.66;2334823;68;20406;-74
2021/01/04 12:17:06;;;;;;;9.38;6.55;;;;;;;2.65;82.84;98929.41;2334453;68;20297;-74
2021/01/04 12:20:09;;;;;;;9.93;7.07;;;;;;;2.62;82.79;98914.00;2333803;68;20289;-74
2021/01/04 12:23:11;;;;;;;10.49;6.76;;;;;;;2.59;82.73;98918.19;2333644;68;20338;-74
2021/01/04 12:26:13;;;;;;;9.84;6.50;;;;;;;2.55;82.60;98912.16;2334518;68;20313;-74
2021/01/04 12:29:14;;;;;;;12.11;7.10;;;;;;;2.57;82.81;98918.16;2334661;68;20352;-74
2021/01/04 12:32:19;;;;;;;10.34;6.45;;;;;;;2.58;83.11;98914.78;2333952;68;20285;-74
2021/01/04 12:35:21;;;;;;;10.95;6.79;;;;;;;2.59;83.16;98911.38;2336639;68;20284;-74
2021/01/04 12:38:22;;;;;;;10.65;6.81;;;;;;;2.59;83.16;98915.63;2336727;68;20353;-74
2021/01/04 12:41:24;;;;;;;12.19;7.28;;;;;;;2.58;83.25;98917.34;2336378;68;20309;-75
2021/01/04 12:44:26;;;;;;;11.74;7.03;;;;;;;2.51;82.93;98912.91;2337164;68;20447;-74
2021/01/04 12:47:28;;;;;;;11.74;7.04;;;;;;;2.47;83.07;98916.25;2336277;68;20892;-75
2021/01/04 12:50:29;;;;;;;11.36;7.50;;;;;;;2.48;83.23;98912.84;2336767;68;20329;-75
2021/01/04 12:53:31;;;;;;;11.74;7.47;;;;;;;2.45;83.20;98907.66;2337706;68;20310;-75
2021/01/04 12:56:33;;;;;;;14.44;8.01;;;;;;;2.44;83.37;98908.50;2336071;68;21192;-74
2021/01/04 12:59:38;;;;;;;12.09;7.35;;;;;;;2.40;83.43;98907.59;2335652;68;20752;-74
2021/01/04 13:02:41;;;;;;;13.50;8.05;;;;;;;2.40;83.72;98915.28;2336716;68;20356;-75
2021/01/04 13:05:43;;;;;;;12.70;7.74;;;;;;;2.42;83.85;98911.03;2335918;68;20326;-74
2021/01/04 13:08:44;;;;;;;13.13;8.23;;;;;;;2.43;83.91;98905.06;2337057;68;20302;-74
2021/01/04 13:11:50;;;;;;;12.36;8.04;;;;;;;2.43;83.79;98905.06;2336544;68;21046;-76
2021/01/04 13:14:52;;;;;;;14.43;8.43;;;;;;;2.41;83.72;98900.75;2336298;68;20342;-74
2021/01/04 13:17:54;;;;;;;12.63;7.97;;;;;;;2.36;83.73;98905.81;2335124;68;20338;-74
2021/01/04 13:20:56;;;;;;;10.82;7.35;;;;;;;2.35;83.96;98909.19;2334750;68;20330;-75
2021/01/04 13:23:58;;;;;;;11.61;7.45;;;;;;;2.34;83.69;98906.59;2335443;68;20925;-75
2021/01/04 13:27:06;;;;;;;11.35;6.90;;;;;;;2.34;83.66;98904.91;2335024;68;20312;-75
2021/01/04 13:30:08;;;;;;;12.07;7.26;;;;;;;2.35;83.64;98903.22;2335327;68;20292;-74
2021/01/04 13:33:10;;;;;;;10.88;7.21;;;;;;;2.30;83.61;98894.53;2335500;68;20350;-74
2021/01/04 13:36:11;;;;;;;12.00;7.19;;;;;;;2.31;83.65;98898.84;2334746;68;20296;-74
2021/01/04 13:39:14;;;;;;;10.73;7.10;;;;;;;2.30;83.70;98902.22;2335134;68;20805;-73
2021/01/04 13:42:17;;;;;;;10.57;6.81;;;;;;;2.30;83.77;98905.66;2339366;68;20281;-73
2021/01/04 13:45:19;;;;;;;11.80;6.95;;;;;;;2.32;83.79;98906.53;2335930;68;20321;-74
2021/01/04 13:48:21;;;;;;;11.21;7.18;;;;;;;2.32;83.62;98901.41;2334936;68;20285;-74
2021/01/04 13:51:22;;;;;;;9.05;6.21;;;;;;;2.26;83.14;98905.56;2335155;68;20308;-73
2021/01/04 13:54:24;;;;;;;10.56;6.59;;;;;;;2.24;83.46;98902.97;2335119;68;20317;-74
2021/01/04 13:57:26;;;;;;;8.65;6.25;;;;;;;2.25;83.41;98902.13;2335171;68;20722;-73
2021/01/04 14:00:29;;;;;;;8.80;6.35;;;;;;;2.26;83.40;98908.13;2335423;68;21222;-73
2021/01/04 14:03:31;;;;;;;10.20;6.35;;;;;;;2.26;83.27;98913.25;2335176;68;20284;-73
2021/01/04 14:06:44;;;;;;;8.93;5.95;;;;;;;2.25;83.18;98914.94;2335911;68;20512;-73
2021/01/04 14:09:50;;;;;;;8.82;6.20;;;;;;;2.26;83.21;98908.13;2334829;68;20297;-73
2021/01/04 14:12:52;;;;;;;8.79;6.81;;;;;;;2.26;83.20;98911.56;2335378;68;20708;-74
2021/01/04 14:15:53;;;;;;;11.55;7.25;;;;;;;2.27;83.22;98903.03;2334665;68;20293;-76
2021/01/04 14:18:56;;;;;;;10.64;6.80;;;;;;;2.26;83.22;98909.00;2334906;68;21263;-74
2021/01/04 14:22:01;;;;;;;11.76;7.40;;;;;;;2.28;83.34;98917.56;2335644;68;20333;-74
2021/01/04 14:25:03;;;;;;;10.56;7.13;;;;;;;2.24;83.31;98908.09;2340079;68;20310;-74
2021/01/04 14:28:04;;;;;;;11.91;7.57;;;;;;;2.26;83.41;98914.13;2334549;68;20342;-74
2021/01/04 14:31:06;;;;;;;13.06;7.22;;;;;;;2.26;83.31;98906.44;2334813;68;20272;-74
2021/01/04 14:34:09;;;;;;;12.64;7.59;;;;;;;2.27;83.44;98900.47;2335743;68;20674;-74
2021/01/04 14:37:11;;;;;;;11.57;7.74;;;;;;;2.28;83.50;98904.75;2334661;68;20329;-74
2021/01/04 14:40:13;;;;;;;13.32;7.89;;;;;;;2.29;83.52;98906.50;2335973;68;20436;-74
2021/01/04 14:43:15;;;;;;;13.73;8.24;;;;;;;2.30;83.40;98913.34;2336561;68;20293;-74
2021/01/04 14:46:22;;;;;;;14.51;7.85;;;;;;;2.33;83.37;98909.97;2335454;68;20400;-74
2021/01/04 14:49:24;;;;;;;14.82;8.94;;;;;;;2.31;83.28;98896.28;2335694;68;20418;-74
2021/01/04 14:52:26;;;;;;;11.66;7.51;;;;;;;2.32;83.25;98909.09;2334889;68;20297;-74
2021/01/04 14:55:27;;;;;;;14.10;7.68;;;;;;;2.27;83.05;98909.84;2335475;68;20325;-74
2021/01/04 14:58:29;;;;;;;12.48;8.25;;;;;;;2.29;83.23;98901.38;2334956;68;20296;-74
2021/01/04 15:01:30;;;;;;;13.07;7.72;;;;;;;2.31;83.23;98904.81;2336312;68;20342;-74
2021/01/04 15:04:32;;;;;;;12.46;8.52;;;;;;;2.33;83.23;98903.16;2336243;68;20332;-74
2021/01/04 15:07:34;;;;;;;12.66;8.50;;;;;;;2.33;83.15;98905.72;2335952;68;20297;-74
2021/01/04 15:10:36;;;;;;;12.95;7.68;;;;;;;2.34;83.04;98901.47;2335044;68;20308;-74
2021/01/04 15:13:37;;;;;;;10.94;7.75;;;;;;;2.34;83.01;98904.03;2335889;68;20819;-74
2021/01/04 15:16:44;;;;;;;11.00;7.86;;;;;;;2.34;82.92;98904.91;2334880;68;20345;-74
2021/01/04 15:19:46;;;;;;;10.74;8.00;;;;;;;2.35;82.88;98905.78;2335014;68;20306;-75
2021/01/04 15:22:47;;;;;;;10.52;7.63;;;;;;;2.33;82.82;98898.03;2334918;68;20273;-75
2021/01/04 15:25:49;;;;;;;12.35;8.10;;;;;;;2.33;82.78;98898.03;2335671;68;20314;-74
2021/01/04 15:28:51;;;;;;;14.57;8.91;;;;;;;2.29;82.78;98898.81;2335000;68;20280;-74
2021/01/04 15:31:54;;;;;;;12.01;8.40;;;;;;;2.29;82.86;98905.63;2333948;68;20334;-74
2021/01/04 15:34:56;;;;;;;10.98;8.24;;;;;;;2.29;82.80;98905.63;2335906;68;20385;-75
2021/01/04 15:37:58;;;;;;;12.55;9.00;;;;;;;2.25;82.71;98906.41;2335495;68;20350;-74
2021/01/04 15:40:59;;;;;;;14.63;8.66;;;;;;;2.22;82.89;98904.66;2335283;68;20800;-74
2021/01/04 15:44:01;;;;;;;12.57;8.34;;;;;;;2.24;82.95;98907.25;2335660;68;20304;-75
2021/01/04 15:47:02;;;;;;;16.34;9.63;;;;;;;2.24;82.94;98907.25;2335085;68;20326;-74
2021/01/04 15:50:05;;;;;;;15.81;8.85;;;;;;;2.22;82.99;98907.22;2335630;68;20306;-74
2021/01/04 15:53:07;;;;;;;14.61;9.26;;;;;;;2.24;82.88;98905.53;2334197;68;20334;-74
2021/01/04 15:56:09;;;;;;;11.61;8.77;;;;;;;2.21;82.53;98912.31;2355474;68;20277;-85
2021/01/04 15:59:10;;;;;;;11.73;8.23;;;;;;;2.20;82.69;98906.31;2347069;68;20264;-85
2021/01/04 16:02:12;;;;;;;11.71;8.07;;;;;;;2.21;82.64;98908.03;2346202;68;20395;-84
2021/01/04 16:09:10;;;;;;;9.82;7.26;;;;;;;2.19;82.43;98908.84;2346355;68;20290;-85
2021/01/04 16:27:15;;;;;;;10.11;6.99;;;;;;;2.17;82.31;98895.16;2336002;68;20273;-85
2021/01/04 16:42:29;;;;;;;10.30;7.06;;;;;;;2.17;82.14;98901.13;2354563;68;20293;-83
2021/01/04 16:45:31;;;;;;;11.38;7.70;;;;;;;2.17;82.12;98908.81;2355133;68;20318;-84
2021/01/04 16:55:04;;;;;;;12.94;7.50;;;;;;;2.16;82.45;98904.53;2345132;67;20265;-84
2021/01/04 16:58:06;;;;;;;10.88;7.15;;;;;;;2.15;82.33;98896.78;2349604;68;20436;-87
2021/01/04 17:01:08;;;;;;;11.24;8.39;;;;;;;2.17;82.42;98900.28;2332354;69;20288;-82
2021/01/04 17:24:25;;;;;;;9.63;6.95;;;;;;;2.20;82.59;98897.78;2351162;68;20313;-84
2021/01/04 17:47:26;;;;;;;11.57;6.71;;;;;;;2.27;81.87;98908.16;2355138;68;20519;-83
2021/01/04 17:50:28;;;;;;;9.84;6.35;;;;;;;2.26;81.55;98901.31;2352522;68;20455;-82
2021/01/04 17:53:30;;;;;;;9.39;6.55;;;;;;;2.29;81.58;98908.19;2350928;68;20265;-82
2021/01/04 17:56:33;;;;;;;8.89;5.91;;;;;;;2.27;81.32;98897.91;2348634;68;20277;-82
2021/01/04 18:06:39;;;;;;;9.05;6.04;;;;;;;2.33;81.57;98904.84;2338593;68;20329;-85
2021/01/04 18:13:11;;;;;;;9.11;6.39;;;;;;;2.34;81.39;98902.34;2347994;68;20441;-85
2021/01/04 18:16:16;;;;;;;9.73;6.47;;;;;;;2.36;81.25;98913.47;2326571;68;20241;-79
2021/01/04 18:35:11;;;;;;;12.80;7.54;;;;;;;2.37;81.16;98912.66;2334343;68;20286;-83
2021/01/04 18:38:14;;;;;;;18.31;9.86;;;;;;;2.38;81.44;98911.81;2312998;68;20282;-83
2021/01/04 18:41:27;;;;;;;12.19;7.54;;;;;;;2.37;81.45;98910.09;2337991;68;20138;-83
2021/01/04 18:44:30;;;;;;;9.32;6.53;;;;;;;2.36;80.96;98907.50;2343997;68;20371;-82
2021/01/04 18:47:33;;;;;;;10.00;6.82;;;;;;;2.34;80.94;98901.47;2344193;68;20390;-82
2021/01/04 18:54:17;;;;;;;10.39;7.68;;;;;;;2.37;80.93;98899.84;2336277;68;20384;-85
2021/01/04 19:00:50;;;;;;;10.90;6.91;;;;;;;2.43;81.06;98899.09;2345861;68;20322;-82
2021/01/04 19:03:58;;;;;;;13.32;8.64;;;;;;;2.38;80.56;98904.13;2346711;68;20300;-84
2021/01/04 19:10:35;;;;;;;8.05;5.99;;;;;;;2.33;80.43;98903.16;2331261;68;20324;-82
2021/01/04 19:13:37;;;;;;;8.89;5.86;;;;;;;2.32;80.26;98898.00;2330354;68;20151;-83
2021/01/04 19:16:39;;;;;;;6.82;5.85;;;;;;;2.32;80.28;98900.56;2332142;69;20260;-83
2021/01/04 19:19:43;;;;;;;9.69;6.81;;;;;;;2.34;80.13;98896.34;2329578;69;20288;-83
2021/01/04 19:22:45;;;;;;;7.59;5.39;;;;;;;2.30;79.58;98890.28;2333900;68;20301;-82
2021/01/04 19:25:47;;;;;;;10.56;6.82;;;;;;;2.29;79.57;98895.38;2331668;69;20305;-82
2021/01/04 19:28:50;;;;;;;8.43;6.10;;;;;;;2.32;79.92;98898.84;2331290;69;20417;-83
2021/01/04 19:31:57;;;;;;;8.75;5.88;;;;;;;2.33;79.78;98897.16;2329302;69;20314;-84
2021/01/04 19:35:19;;;;;;;7.96;5.24;;;;;;;2.34;79.06;98902.34;2329772;68;20326;-85
2021/01/04 19:38:22;;;;;;;8.70;5.66;;;;;;;2.35;78.95;98900.66;2334288;69;20316;-83
2021/01/04 19:41:27;;;;;;;7.47;5.47;;;;;;;2.36;78.92;98899.81;2330858;69;20332;-84
2021/01/04 19:44:30;;;;;;;7.88;5.70;;;;;;;2.36;78.33;98894.69;2333625;68;20268;-85
2021/01/04 19:47:32;;;;;;;9.31;5.75;;;;;;;2.34;77.81;98893.78;2335315;68;20358;-85
2021/01/04 19:50:36;;;;;;;8.73;5.68;;;;;;;2.37;77.77;98892.16;2332306;69;20313;-84
2021/01/04 19:53:38;;;;;;;10.25;6.00;;;;;;;2.38;77.81;98898.16;2331901;68;20292;-84
2021/01/04 19:56:47;;;;;;;8.81;5.86;;;;;;;2.33;77.11;98884.34;2328770;69;20475;-84
2021/01/04 19:59:50;;;;;;;10.10;6.44;;;;;;;2.36;77.03;98897.25;2331672;69;20284;-84
2021/01/04 20:02:52;;;;;;;9.76;6.65;;;;;;;2.38;77.09;98899.00;2332367;69;20147;-84
2021/01/04 20:05:54;;;;;;;13.35;8.77;;;;;;;2.36;76.98;98894.69;2335678;69;20313;-84
2021/01/04 20:08:57;;;;;;;12.36;7.91;;;;;;;2.34;76.94;98899.78;2330059;69;20431;-84
2021/01/04 20:11:59;;;;;;;12.05;7.57;;;;;;;2.35;77.12;98900.66;2332201;69;20345;-84
2021/01/04 20:15:01;;;;;;;14.31;7.50;;;;;;;2.36;77.47;98905.81;2334389;69;20311;-85
2021/01/04 20:18:05;;;;;;;10.04;6.39;;;;;;;2.39;77.64;98897.31;2328430;68;20376;-83
2021/01/04 20:21:07;;;;;;;12.18;7.76;;;;;;;2.37;77.24;98893.84;2334373;69;20414;-85
2021/01/04 20:24:12;;;;;;;12.30;7.47;;;;;;;2.40;77.37;98894.78;2337441;69;20285;-83
2021/01/04 20:27:14;;;;;;;10.84;6.89;;;;;;;2.41;77.32;98899.06;2329481;69;20340;-84
2021/01/04 20:30:17;;;;;;;7.50;5.88;;;;;;;2.40;77.29;98886.22;2329669;69;20929;-84
2021/01/04 20:33:22;;;;;;;7.05;5.15;;;;;;;2.39;76.95;98893.03;2333609;68;20308;-84
2021/01/04 20:36:24;;;;;;;7.84;5.43;;;;;;;2.34;76.18;98888.69;2329117;68;20322;-83
2021/01/04 20:39:28;;;;;;;7.31;5.56;;;;;;;2.28;76.19;98886.84;2328941;69;20296;-83
2021/01/04 20:42:29;;;;;;;7.65;4.69;;;;;;;2.29;76.50;98888.56;2330656;69;20304;-84
2021/01/04 20:45:31;;;;;;;7.13;4.81;;;;;;;2.27;75.92;98889.38;2332944;69;20300;-83
2021/01/04 20:48:34;;;;;;;9.90;5.70;;;;;;;2.30;76.31;98885.16;2333002;69;20300;-83
2021/01/04 20:51:37;;;;;;;8.84;5.68;;;;;;;2.31;76.44;98884.31;2335632;69;20294;-83
2021/01/04 20:54:39;;;;;;;7.56;5.32;;;;;;;2.35;76.84;98886.13;2333895;69;20366;-83
2021/01/04 20:57:41;;;;;;;7.11;4.99;;;;;;;2.33;76.65;98884.34;2328484;68;20374;-82
2021/01/04 21:00:43;;;;;;;7.82;5.18;;;;;;;2.28;76.23;98879.16;2329306;69;20299;-83
2021/01/04 21:03:45;;;;;;;6.80;5.20;;;;;;;2.29;76.39;98874.88;2328118;69;20284;-82
2021/01/04 21:06:49;;;;;;;8.96;5.82;;;;;;;2.30;76.64;98876.63;2329070;69;20356;-83
2021/01/04 21:09:56;;;;;;;8.45;5.41;;;;;;;2.28;76.74;98876.59;2329014;69;20657;-83
2021/01/04 21:12:58;;;;;;;7.15;5.41;;;;;;;2.24;76.88;98868.81;2326840;68;20443;-81
2021/01/04 21:16:02;;;;;;;7.20;5.32;;;;;;;2.28;76.88;98868.03;2329086;69;20312;-84